createdAt,value
2018-12-06T00:00:17.441Z,29.20
2018-12-06T00:02:44.904Z,32.23
2018-12-06T00:05:12.362Z,27.95
2018-12-06T00:07:43.752Z,25.72
2018-12-06T00:10:11.269Z,29.02
2018-12-06T00:12:38.749Z,28.70
2018-12-06T00:15:18.068Z,29.02
2018-12-06T00:17:45.533Z,30.65
2018-12-06T00:20:13.019Z,28.52
2018-12-06T00:22:40.509Z,24.82
2018-12-06T00:25:08.053Z,24.40
2018-12-06T00:27:35.536Z,24.37
2018-12-06T00:30:14.853Z,29.18
2018-12-06T00:32:42.365Z,28.92
2018-12-06T00:35:09.804Z,20.45
2018-12-06T00:37:37.307Z,25.48
2018-12-06T00:40:04.817Z,26.45
2018-12-06T00:42:32.456Z,26.73
2018-12-06T00:45:00.784Z,25.88
2018-12-06T00:47:28.289Z,25.57
2018-12-06T00:49:55.827Z,25.08
2018-12-06T00:52:23.321Z,23.57
2018-12-06T00:54:50.853Z,30.70
2018-12-06T00:57:18.405Z,22.02
2018-12-06T00:59:45.885Z,24.75
2018-12-06T01:02:13.352Z,28.38
2018-12-06T01:04:40.860Z,29.30
2018-12-06T01:07:08.306Z,24.82
2018-12-06T01:09:35.853Z,19.20
2018-12-06T01:12:03.593Z,24.05
2018-12-06T01:14:36.755Z,30.15
2018-12-06T01:17:04.213Z,22.05
2018-12-06T01:19:31.808Z,22.05
2018-12-06T01:21:59.350Z,21.87
2018-12-06T01:24:26.882Z,19.70
2018-12-06T01:26:54.309Z,22.37
2018-12-06T01:29:21.757Z,21.95
2018-12-06T01:31:49.267Z,23.57
2018-12-06T01:34:16.729Z,26.00
2018-12-06T01:36:44.221Z,22.87
2018-12-06T01:39:11.670Z,24.05
2018-12-06T01:41:39.126Z,25.10
2018-12-06T01:44:06.585Z,27.90
2018-12-06T01:46:34.035Z,23.12
2018-12-06T01:49:01.523Z,24.07
2018-12-06T01:51:29.008Z,26.82
2018-12-06T01:53:56.482Z,25.30
2018-12-06T01:56:23.933Z,25.35
2018-12-06T01:58:51.389Z,24.95
2018-12-06T02:01:18.882Z,24.60
2018-12-06T02:03:46.343Z,25.82
2018-12-06T02:06:13.785Z,24.32
2018-12-06T02:08:41.259Z,25.77
2018-12-06T02:11:08.694Z,29.85
2018-12-06T02:13:36.213Z,29.52
2018-12-06T02:16:03.674Z,25.50
2018-12-06T02:18:31.122Z,32.50
2018-12-06T02:20:58.579Z,24.50
2018-12-06T02:23:26.013Z,22.48
2018-12-06T02:25:53.492Z,30.72
2018-12-06T02:28:20.924Z,23.83
2018-12-06T02:30:48.380Z,27.75
2018-12-06T02:33:15.842Z,27.25
2018-12-06T02:35:43.297Z,30.88
2018-12-06T02:38:10.741Z,26.65
2018-12-06T02:40:38.193Z,30.00
2018-12-06T02:43:05.677Z,25.72
2018-12-06T02:45:33.147Z,26.93
2018-12-06T02:48:00.627Z,26.68
2018-12-06T02:50:28.122Z,27.90
2018-12-06T02:52:55.556Z,22.02
2018-12-06T02:55:23.002Z,29.98
2018-12-06T02:57:50.443Z,25.85
2018-12-06T03:00:17.895Z,23.18
2018-12-06T03:02:45.361Z,35.33
2018-12-06T03:05:12.882Z,26.68
2018-12-06T03:07:40.320Z,27.15
2018-12-06T03:10:07.878Z,26.00
2018-12-06T03:12:35.333Z,26.45
2018-12-06T03:15:03.285Z,25.20
2018-12-06T03:17:30.739Z,29.70
2018-12-06T03:19:58.214Z,27.85
2018-12-06T03:22:25.685Z,28.17
2018-12-06T03:24:53.146Z,22.87
2018-12-06T03:27:20.598Z,28.55
2018-12-06T03:29:48.050Z,26.90
2018-12-06T03:32:15.519Z,27.67
2018-12-06T03:34:42.962Z,28.38
2018-12-06T03:37:10.459Z,23.45
2018-12-06T03:39:37.893Z,22.75
2018-12-06T03:42:06.328Z,25.80
2018-12-06T03:44:35.718Z,31.33
2018-12-06T03:47:04.361Z,23.35
2018-12-06T03:49:31.959Z,25.92
2018-12-06T03:51:59.438Z,23.75
2018-12-06T03:54:26.909Z,26.23
2018-12-06T03:56:54.479Z,28.95
2018-12-06T03:59:21.947Z,22.32
2018-12-06T04:01:49.457Z,25.50
2018-12-06T04:04:17.088Z,20.97
2018-12-06T04:06:44.663Z,19.52
2018-12-06T04:09:12.131Z,20.35
2018-12-06T04:11:39.579Z,19.55
2018-12-06T04:14:07.040Z,16.80
2018-12-06T04:16:34.501Z,20.10
2018-12-06T04:19:01.954Z,17.17
2018-12-06T04:21:29.418Z,23.90
2018-12-06T04:23:56.868Z,21.90
2018-12-06T04:26:24.348Z,21.48
2018-12-06T04:28:51.790Z,20.08
2018-12-06T04:31:19.258Z,16.82
2018-12-06T04:33:46.695Z,19.32
2018-12-06T04:36:14.149Z,18.00
2018-12-06T04:38:41.585Z,19.67
2018-12-06T04:41:09.087Z,23.02
2018-12-06T04:43:36.521Z,23.27
2018-12-06T04:46:04.030Z,20.32
2018-12-06T04:48:31.482Z,24.05
2018-12-06T04:50:58.940Z,20.57
2018-12-06T04:53:26.397Z,24.52
2018-12-06T04:55:53.885Z,18.52
2018-12-06T04:58:21.338Z,16.90
2018-12-06T05:00:48.784Z,22.48
2018-12-06T05:03:16.229Z,17.55
2018-12-06T05:05:43.696Z,14.93
2018-12-06T05:08:11.200Z,16.97
2018-12-06T05:10:38.656Z,17.55
2018-12-06T05:13:06.154Z,17.05
2018-12-06T05:15:33.615Z,17.17
2018-12-06T05:18:01.717Z,20.77
2018-12-06T05:20:29.169Z,19.07
2018-12-06T05:22:56.613Z,21.17
2018-12-06T05:25:24.069Z,16.48
2018-12-06T05:27:51.525Z,19.55
2018-12-06T05:30:18.985Z,23.20
2018-12-06T05:32:46.437Z,20.75
2018-12-06T05:35:13.894Z,18.37
2018-12-06T05:37:41.362Z,20.32
2018-12-06T05:40:08.856Z,17.25
2018-12-06T05:42:36.309Z,20.35
2018-12-06T05:45:04.233Z,18.02
2018-12-06T05:47:31.703Z,18.07
2018-12-06T05:49:59.179Z,20.23
2018-12-06T05:52:26.669Z,18.45
2018-12-06T05:54:54.220Z,20.85
2018-12-06T05:57:21.678Z,20.05
2018-12-06T05:59:49.177Z,20.88
2018-12-06T06:02:16.828Z,20.77
2018-12-06T06:04:44.367Z,17.20
2018-12-06T06:07:22.237Z,17.70
2018-12-06T06:09:49.726Z,18.27
2018-12-06T06:12:17.228Z,21.65
2018-12-06T06:14:44.726Z,21.40
2018-12-06T06:17:12.225Z,21.00
2018-12-06T06:19:39.743Z,23.30
2018-12-06T06:22:07.204Z,22.60
2018-12-06T06:24:34.656Z,21.80
2018-12-06T06:27:02.661Z,25.12
2018-12-06T06:29:30.129Z,16.10
2018-12-06T06:31:57.577Z,22.00
2018-12-06T06:34:25.035Z,18.80
2018-12-06T06:36:52.492Z,18.75
2018-12-06T06:39:20.063Z,18.30
2018-12-06T06:41:47.513Z,19.48
2018-12-06T06:44:14.984Z,20.17
2018-12-06T06:46:42.444Z,18.20
2018-12-06T06:49:13.859Z,19.32
2018-12-06T06:51:39.382Z,16.52
2018-12-06T06:54:06.855Z,19.32
2018-12-06T06:56:34.302Z,19.82
2018-12-06T06:59:01.874Z,25.40
2018-12-06T07:01:29.362Z,21.07
2018-12-06T07:03:56.829Z,17.23
2018-12-06T07:06:24.295Z,18.25
2018-12-06T07:08:51.765Z,15.65
2018-12-06T07:11:19.249Z,18.23
2018-12-06T07:13:46.911Z,16.30
2018-12-06T07:16:14.356Z,21.40
2018-12-06T07:18:41.818Z,19.55
2018-12-06T07:21:09.249Z,16.85
2018-12-06T07:23:36.789Z,21.73
2018-12-06T07:26:04.468Z,20.12
2018-12-06T07:28:31.930Z,16.85
2018-12-06T07:30:59.412Z,14.43
2018-12-06T07:33:26.872Z,15.95
2018-12-06T07:35:54.568Z,15.75
2018-12-06T07:38:22.337Z,17.27
2018-12-06T07:40:49.991Z,15.65
2018-12-06T07:43:17.464Z,16.95
2018-12-06T07:45:45.684Z,19.37
2018-12-06T07:48:13.149Z,14.53
2018-12-06T07:50:40.585Z,13.55
2018-12-06T07:53:08.129Z,14.25
2018-12-06T07:55:35.672Z,17.32
2018-12-06T07:58:03.177Z,13.25
2018-12-06T08:00:30.656Z,15.32
2018-12-06T08:02:58.223Z,11.88
2018-12-06T08:05:25.705Z,21.87
2018-12-06T08:07:53.156Z,12.68
2018-12-06T08:10:20.637Z,12.68
2018-12-06T08:12:48.203Z,13.80
2018-12-06T08:15:15.700Z,16.42
2018-12-06T08:17:43.184Z,14.20
2018-12-06T08:20:10.651Z,14.40
2018-12-06T08:22:38.125Z,14.55
2018-12-06T08:25:05.641Z,16.97
2018-12-06T08:27:33.212Z,15.53
2018-12-06T08:30:00.716Z,29.85
2018-12-06T08:32:28.187Z,13.25
2018-12-06T08:34:55.680Z,15.63
2018-12-06T08:37:23.109Z,19.73
2018-12-06T08:39:50.565Z,13.48
2018-12-06T08:42:18.060Z,20.23
2018-12-06T08:44:45.839Z,15.43
2018-12-06T08:47:13.285Z,18.35
2018-12-06T08:49:42.297Z,14.05
2018-12-06T08:52:15.524Z,18.10
2018-12-06T08:54:43.103Z,19.25
2018-12-06T08:57:10.704Z,16.97
2018-12-06T08:59:38.239Z,13.43
2018-12-06T09:02:06.188Z,14.50
2018-12-06T09:04:33.650Z,12.88
2018-12-06T09:07:01.086Z,14.73
2018-12-06T09:09:28.539Z,12.70
2018-12-06T09:11:56.086Z,15.05
2018-12-06T09:14:23.522Z,17.10
2018-12-06T09:16:51.036Z,13.25
2018-12-06T09:19:18.648Z,15.98
2018-12-06T09:21:46.073Z,15.75
2018-12-06T09:24:13.547Z,13.70
2018-12-06T09:26:41.027Z,14.47
2018-12-06T09:29:08.489Z,12.60
2018-12-06T09:31:35.929Z,14.07
2018-12-06T09:34:05.791Z,12.47
2018-12-06T09:36:33.318Z,14.70
2018-12-06T09:39:00.859Z,12.73
2018-12-06T09:41:29.313Z,11.20
2018-12-06T09:43:56.769Z,13.65
2018-12-06T09:46:24.305Z,13.03
2018-12-06T09:48:51.749Z,12.23
2018-12-06T09:51:19.225Z,12.47
2018-12-06T09:53:46.679Z,10.70
2018-12-06T09:56:14.127Z,12.05
2018-12-06T09:58:41.603Z,14.38
2018-12-06T10:01:09.113Z,14.35
2018-12-06T10:03:36.563Z,11.50
2018-12-06T10:06:04.083Z,14.15
2018-12-06T10:08:31.604Z,10.65
2018-12-06T10:10:59.087Z,10.35
2018-12-06T10:13:26.560Z,13.28
2018-12-06T10:15:53.997Z,11.80
2018-12-06T10:18:21.667Z,12.90
2018-12-06T10:20:49.143Z,13.62
2018-12-06T10:23:16.612Z,10.35
2018-12-06T10:25:44.098Z,12.75
2018-12-06T10:28:11.626Z,10.58
2018-12-06T10:30:39.081Z,11.73
2018-12-06T10:33:06.551Z,12.05
2018-12-06T10:35:33.997Z,12.28
2018-12-06T10:38:01.450Z,10.20
2018-12-06T10:40:28.899Z,12.15
2018-12-06T10:42:56.351Z,9.58
2018-12-06T10:45:23.820Z,13.70
2018-12-06T10:47:51.272Z,14.10
2018-12-06T10:50:18.757Z,12.20
2018-12-06T10:52:46.307Z,15.80
2018-12-06T10:55:13.905Z,11.18
2018-12-06T10:57:41.449Z,10.53
2018-12-06T11:00:11.037Z,13.32
2018-12-06T11:02:44.160Z,12.23
2018-12-06T11:05:11.652Z,16.02
2018-12-06T11:07:39.250Z,12.40
2018-12-06T11:10:07.147Z,10.48
2018-12-06T11:12:34.603Z,13.87
2018-12-06T11:15:02.070Z,10.13
2018-12-06T11:17:29.508Z,12.10
2018-12-06T11:19:56.965Z,12.50
2018-12-06T11:22:24.433Z,17.32
2018-12-06T11:24:51.901Z,11.35
2018-12-06T11:27:19.345Z,13.53
2018-12-06T11:29:46.871Z,13.10
2018-12-06T11:32:14.393Z,12.23
2018-12-06T11:34:41.832Z,16.45
2018-12-06T11:37:09.418Z,11.20
2018-12-06T11:39:36.873Z,13.50
2018-12-06T11:42:04.329Z,10.93
2018-12-06T11:44:31.782Z,12.98
2018-12-06T11:46:59.277Z,12.17
2018-12-06T11:49:26.721Z,12.37
2018-12-06T11:51:54.224Z,11.50
2018-12-06T11:54:21.669Z,9.15
2018-12-06T11:56:49.140Z,11.17
2018-12-06T11:59:16.601Z,12.80
2018-12-06T12:01:44.061Z,9.17
2018-12-06T12:04:11.508Z,10.60
2018-12-06T12:06:38.981Z,9.47
2018-12-06T12:09:07.005Z,8.70
2018-12-06T12:11:34.464Z,8.60
2018-12-06T12:14:02.013Z,12.03
2018-12-06T12:16:29.457Z,8.53
2018-12-06T12:18:56.892Z,9.07
2018-12-06T12:21:24.341Z,8.67
2018-12-06T12:23:51.785Z,7.30
2018-12-06T12:26:19.301Z,8.97
2018-12-06T12:28:46.760Z,8.33
2018-12-06T12:31:14.313Z,10.53
2018-12-06T12:33:41.757Z,7.00
2018-12-06T12:36:09.209Z,7.58
2018-12-06T12:38:36.737Z,8.33
2018-12-06T12:41:04.182Z,9.83
2018-12-06T12:43:31.639Z,8.10
2018-12-06T12:45:59.102Z,5.70
2018-12-06T12:48:26.560Z,8.58
2018-12-06T12:50:54.005Z,6.53
2018-12-06T12:53:23.021Z,6.50
2018-12-06T12:55:50.678Z,5.85
2018-12-06T12:58:18.109Z,6.77
2018-12-06T13:00:45.721Z,8.40
2018-12-06T13:03:13.193Z,5.72
2018-12-06T13:05:40.672Z,6.10
2018-12-06T13:08:08.124Z,6.20
2018-12-06T13:10:35.569Z,5.22
2018-12-06T13:13:03.023Z,6.00
2018-12-06T13:15:30.626Z,6.20
2018-12-06T13:17:58.069Z,8.97
2018-12-06T13:20:25.528Z,7.08
2018-12-06T13:22:52.980Z,6.17
2018-12-06T13:25:20.473Z,5.40
2018-12-06T13:27:47.976Z,6.50
2018-12-06T13:30:15.469Z,6.53
2018-12-06T13:32:42.990Z,6.67
2018-12-06T13:35:10.469Z,6.47
2018-12-06T13:37:37.925Z,7.83
2018-12-06T13:40:05.524Z,5.80
2018-12-06T13:42:32.970Z,5.50
2018-12-06T13:45:00.420Z,6.53
2018-12-06T13:47:27.875Z,4.87
2018-12-06T13:49:55.353Z,5.75
2018-12-06T13:52:22.797Z,6.40
2018-12-06T13:54:50.249Z,5.92
2018-12-06T13:57:19.739Z,5.30
2018-12-06T13:59:47.161Z,7.50
2018-12-06T14:02:14.605Z,8.70
2018-12-06T14:04:42.056Z,7.87
2018-12-06T14:07:09.513Z,5.20
2018-12-06T14:09:36.953Z,5.30
2018-12-06T14:12:04.522Z,5.03
2018-12-06T14:14:31.975Z,5.25
2018-12-06T14:16:59.434Z,5.12
2018-12-06T14:19:26.889Z,11.12
2018-12-06T14:21:54.382Z,4.90
2018-12-06T14:24:21.835Z,5.12
2018-12-06T14:26:49.315Z,3.98
2018-12-06T14:29:16.941Z,5.75
2018-12-06T14:31:44.513Z,5.75
2018-12-06T14:34:11.957Z,6.92
2018-12-06T14:36:39.448Z,5.70
2018-12-06T14:39:07.817Z,5.03
2018-12-06T14:41:35.271Z,4.80
2018-12-06T14:44:02.763Z,5.65
2018-12-06T14:46:30.225Z,4.40
2018-12-06T14:48:57.694Z,6.35
2018-12-06T14:51:25.145Z,6.05
2018-12-06T14:53:52.601Z,7.60
2018-12-06T14:56:20.037Z,5.37
2018-12-06T14:58:47.565Z,5.10
2018-12-06T15:01:15.027Z,5.80
2018-12-06T15:03:42.483Z,6.95
2018-12-06T15:06:09.965Z,7.17
2018-12-06T15:08:37.436Z,6.85
2018-12-06T15:13:56.781Z,6.15
2018-12-06T15:16:24.239Z,5.40
2018-12-06T15:18:51.745Z,4.90
2018-12-06T15:21:19.242Z,4.15
2018-12-06T15:23:46.775Z,4.87
2018-12-06T15:26:14.240Z,5.33
2018-12-06T15:28:41.845Z,5.78
2018-12-06T15:31:09.313Z,6.67
2018-12-06T15:33:36.767Z,4.75
2018-12-06T15:36:04.253Z,5.53
2018-12-06T15:38:31.701Z,5.45
2018-12-06T15:40:59.192Z,6.15
2018-12-06T15:43:26.693Z,5.37
2018-12-06T15:45:54.197Z,4.85
2018-12-06T15:48:21.679Z,4.83
2018-12-06T15:50:49.213Z,4.85
2018-12-06T15:53:16.676Z,6.15
2018-12-06T15:55:44.130Z,6.15
2018-12-06T15:58:11.583Z,5.25
2018-12-06T16:00:39.931Z,8.13
2018-12-06T16:03:07.579Z,5.65
2018-12-06T16:05:35.024Z,6.15
2018-12-06T16:08:02.587Z,6.15
2018-12-06T16:10:30.134Z,7.15
2018-12-06T16:12:57.632Z,6.08
2018-12-06T16:15:25.081Z,6.78
2018-12-06T16:17:52.571Z,5.95
2018-12-06T16:20:20.016Z,7.12
2018-12-06T16:22:47.466Z,7.45
2018-12-06T16:25:14.930Z,8.33
2018-12-06T16:27:42.396Z,7.55
2018-12-06T16:30:09.918Z,7.65
2018-12-06T16:32:37.361Z,6.17
2018-12-06T16:35:05.463Z,7.47
2018-12-06T16:37:33.003Z,8.90
2018-12-06T16:40:00.649Z,6.92
2018-12-06T16:42:28.109Z,7.90
2018-12-06T16:44:55.565Z,8.05
2018-12-06T16:47:23.069Z,9.00
2018-12-06T16:49:50.607Z,8.38
2018-12-06T16:52:18.202Z,7.53
2018-12-06T16:54:45.642Z,7.90
2018-12-06T16:57:13.114Z,6.60
2018-12-06T16:59:40.571Z,7.40
2018-12-06T17:02:08.095Z,6.42
2018-12-06T17:04:35.600Z,5.75
2018-12-06T17:07:03.089Z,6.70
2018-12-06T17:09:30.964Z,6.08
2018-12-06T17:11:58.401Z,6.17
2018-12-06T17:14:25.869Z,6.17
2018-12-06T17:16:53.373Z,6.42
2018-12-06T17:19:20.833Z,7.45
2018-12-06T17:21:48.261Z,7.22
2018-12-06T17:24:16.620Z,7.78
2018-12-06T17:26:44.443Z,6.97
2018-12-06T17:29:11.885Z,6.92
2018-12-06T17:31:39.416Z,7.37
2018-12-06T17:34:06.978Z,6.80
2018-12-06T17:36:34.436Z,8.80
2018-12-06T17:39:01.922Z,6.97
2018-12-06T17:41:29.345Z,6.85
2018-12-06T17:43:56.792Z,6.75
2018-12-06T17:46:24.313Z,6.53
2018-12-06T17:48:51.790Z,6.55
2018-12-06T17:51:19.265Z,6.65
2018-12-06T17:53:52.126Z,7.53
2018-12-06T17:56:16.230Z,7.33
2018-12-06T17:58:43.697Z,7.22
2018-12-06T18:01:11.144Z,7.28
2018-12-06T18:03:38.617Z,7.78
2018-12-06T18:06:06.110Z,5.97
2018-12-06T18:08:33.596Z,6.83
2018-12-06T18:11:01.077Z,5.87
2018-12-06T18:13:28.536Z,5.40
2018-12-06T18:15:56.060Z,7.35
2018-12-06T18:18:23.512Z,7.08
2018-12-06T18:20:51.018Z,14.87
2018-12-06T18:23:18.491Z,8.05
2018-12-06T18:25:46.018Z,8.40
2018-12-06T18:28:13.591Z,6.92
2018-12-06T18:30:41.057Z,6.72
2018-12-06T18:33:08.493Z,7.60
2018-12-06T18:35:35.947Z,8.83
2018-12-06T18:38:03.437Z,6.70
2018-12-06T18:40:30.884Z,7.25
2018-12-06T18:42:58.331Z,6.03
2018-12-06T18:45:25.821Z,6.20
2018-12-06T18:47:53.306Z,6.17
2018-12-06T18:50:20.740Z,5.95
2018-12-06T18:52:48.241Z,6.10
2018-12-06T18:55:15.691Z,6.80
2018-12-06T18:57:43.212Z,6.75
2018-12-06T19:00:11.105Z,6.17
2018-12-06T19:02:38.553Z,6.78
2018-12-06T19:05:06.148Z,9.28
2018-12-06T19:07:33.608Z,6.80
2018-12-06T19:10:01.155Z,7.20
2018-12-06T19:12:28.624Z,5.90
2018-12-06T19:14:56.090Z,6.55
2018-12-06T19:17:23.547Z,6.40
2018-12-06T19:19:51.045Z,7.60
2018-12-06T19:22:18.514Z,6.53
2018-12-06T19:24:46.054Z,6.97
2018-12-06T19:27:13.531Z,7.65
2018-12-06T19:29:41.231Z,7.90
2018-12-06T19:32:08.769Z,8.23
2018-12-06T19:34:36.564Z,8.15
2018-12-06T19:37:04.160Z,7.42
2018-12-06T19:39:31.622Z,7.80
2018-12-06T19:41:59.188Z,8.85
2018-12-06T19:44:26.738Z,9.03
2018-12-06T19:46:54.325Z,11.45
2018-12-06T19:49:21.988Z,8.85
2018-12-06T19:51:49.524Z,7.87
2018-12-06T19:54:17.040Z,7.75
2018-12-06T19:56:44.514Z,8.80
2018-12-06T19:59:12.039Z,7.83
2018-12-06T20:01:39.490Z,9.33
2018-12-06T20:04:07.007Z,8.98
2018-12-06T20:06:34.466Z,7.83
2018-12-06T20:09:01.952Z,8.93
2018-12-06T20:11:29.525Z,7.25
2018-12-06T20:13:57.042Z,7.47
2018-12-06T20:16:24.546Z,8.50
2018-12-06T20:18:52.273Z,9.20
2018-12-06T20:21:20.652Z,7.87
2018-12-06T20:23:48.177Z,15.03
2018-12-06T20:26:15.661Z,7.28
2018-12-06T20:28:43.104Z,9.78
2018-12-06T20:31:48.908Z,6.53
2018-12-06T20:34:16.364Z,7.08
2018-12-06T20:36:43.824Z,10.35
2018-12-06T20:39:11.288Z,8.60
2018-12-06T20:41:38.742Z,5.70
2018-12-06T20:44:06.197Z,6.28
2018-12-06T20:46:33.741Z,6.60
2018-12-06T20:49:01.226Z,6.72
2018-12-06T20:51:28.719Z,5.95
2018-12-06T20:53:56.259Z,5.75
2018-12-06T20:56:23.712Z,6.05
2018-12-06T20:58:51.171Z,5.28
2018-12-06T21:01:18.660Z,6.40
2018-12-06T21:03:46.147Z,5.75
2018-12-06T21:06:13.683Z,5.30
2018-12-06T21:08:41.143Z,7.72
2018-12-06T21:11:08.586Z,7.25
2018-12-06T21:13:36.046Z,6.25
2018-12-06T21:16:03.571Z,6.20
2018-12-06T21:18:31.176Z,5.15
2018-12-06T21:20:58.653Z,5.97
2018-12-06T21:23:26.157Z,5.50
2018-12-06T21:25:55.010Z,5.28
2018-12-06T21:28:22.481Z,4.65
2018-12-06T21:30:50.021Z,4.97
2018-12-06T21:33:17.512Z,4.70
2018-12-06T21:35:45.020Z,5.50
2018-12-06T21:38:12.516Z,5.47
2018-12-06T21:40:40.904Z,4.83
2018-12-06T21:43:08.451Z,6.40
2018-12-06T21:45:35.980Z,6.15
2018-12-06T21:48:03.546Z,5.97
2018-12-06T21:50:30.990Z,6.42
2018-12-06T21:52:58.749Z,7.60
2018-12-06T21:55:26.206Z,6.80
2018-12-06T21:57:53.818Z,5.83
2018-12-06T22:00:21.349Z,7.75
2018-12-06T22:02:48.948Z,10.68
2018-12-06T22:05:16.421Z,6.15
2018-12-06T22:07:43.932Z,6.10
2018-12-06T22:10:11.404Z,7.05
2018-12-06T22:12:39.081Z,6.40
2018-12-06T22:15:06.654Z,6.47
2018-12-06T22:17:34.145Z,5.33
2018-12-06T22:20:01.731Z,6.15
2018-12-06T22:22:29.205Z,7.90
2018-12-06T22:24:56.670Z,8.88
2018-12-06T22:27:24.171Z,5.92
2018-12-06T22:29:51.751Z,6.28
2018-12-06T22:32:19.408Z,7.47
2018-12-06T22:34:46.861Z,8.13
2018-12-06T22:37:14.318Z,5.85
2018-12-06T22:39:41.793Z,5.30
2018-12-06T22:42:09.237Z,5.07
2018-12-06T22:44:37.477Z,5.78
2018-12-06T22:47:05.052Z,4.47
2018-12-06T22:49:32.513Z,5.10
2018-12-06T22:51:59.990Z,5.20
2018-12-06T22:54:27.441Z,5.33
2018-12-06T22:56:55.010Z,5.80
2018-12-06T22:59:22.510Z,5.03
2018-12-06T23:01:50.029Z,7.28
2018-12-06T23:04:17.562Z,4.90
2018-12-06T23:06:45.037Z,4.37
2018-12-06T23:09:12.626Z,4.00
2018-12-06T23:11:40.149Z,5.20
2018-12-06T23:14:07.580Z,4.92
2018-12-06T23:16:35.109Z,5.50
2018-12-06T23:19:02.654Z,4.30
2018-12-06T23:21:30.571Z,4.20
2018-12-06T23:23:58.183Z,4.08
2018-12-06T23:26:25.720Z,4.97
2018-12-06T23:28:53.182Z,3.83
2018-12-06T23:31:20.685Z,5.08
2018-12-06T23:33:48.169Z,5.90
2018-12-06T23:36:15.692Z,4.72
2018-12-06T23:38:43.178Z,5.42
2018-12-06T23:41:10.734Z,5.03
2018-12-06T23:43:38.190Z,3.80
2018-12-06T23:46:05.667Z,4.17
2018-12-06T23:48:33.166Z,3.90
2018-12-06T23:51:12.601Z,4.85
2018-12-06T23:53:40.037Z,4.42
2018-12-06T23:56:07.532Z,3.80
2018-12-06T23:58:34.997Z,4.95
